Croton Hudson, New York
Current Conditions -  °F | °C
As of 8:56 PM on Tuesday 21 Oct 2014 (Local Time) from KHPN Reporting Station
Scattered Clouds Scattered Clouds  
Wind Chill: 55°   Ceiling: Unl
Heat Index: 55°   Visibility: 10mi
Dew Point: 52°   Wind: 8mph
Humidity: 89%   Direction: 340°NNW
Pressure: 29.9"   Gusts: NA
Location:  41.2219°N, 73.887°W
Report Text: KHPN 220056Z 34007KT 10SM SCT034 SCT090 13/11 A2990 RMK AO2 SLP124 T01280111
Loading
Personal Weather Stations






























Interactive Weather Map
Tropical Storm Tracking
New forecast layout! Learn more

10-Day Weather Forecast

Advertisements
Track Severe Weather on mobile